createdAt,value
2019-02-15T00:01:43.334Z,7.70
2019-02-15T00:04:10.191Z,8.77
2019-02-15T00:06:36.518Z,8.37
2019-02-15T00:09:04.726Z,7.87
2019-02-15T00:11:33.313Z,9.37
2019-02-15T00:13:59.902Z,8.37
2019-02-15T00:16:26.233Z,7.40
2019-02-15T00:18:54.480Z,6.13
2019-02-15T00:21:22.730Z,7.93
2019-02-15T00:23:49.524Z,8.00
2019-02-15T00:26:16.673Z,8.83
2019-02-15T00:28:43.546Z,6.87
2019-02-15T00:31:12.063Z,6.77
2019-02-15T00:33:38.658Z,7.53
2019-02-15T00:36:05.231Z,6.30
2019-02-15T00:38:31.806Z,6.50
2019-02-15T00:40:58.113Z,6.50
2019-02-15T00:43:24.728Z,7.60
2019-02-15T00:45:53.220Z,7.70
2019-02-15T00:48:21.689Z,7.33
2019-02-15T00:51:01.983Z,7.80
2019-02-15T00:53:36.575Z,6.37
2019-02-15T00:56:07.858Z,7.40
2019-02-15T00:58:51.971Z,6.40
2019-02-15T01:01:36.815Z,8.27
2019-02-15T01:04:05.265Z,9.43
2019-02-15T01:06:48.789Z,7.77
2019-02-15T01:09:17.038Z,6.97
2019-02-15T01:11:48.232Z,8.50
2019-02-15T01:14:14.570Z,6.80
2019-02-15T01:16:40.943Z,7.63
2019-02-15T01:19:07.554Z,6.90
2019-02-15T01:21:33.889Z,9.03
2019-02-15T01:24:00.279Z,7.83
2019-02-15T01:26:31.430Z,8.60
2019-02-15T01:29:08.346Z,8.07
2019-02-15T01:31:36.568Z,7.10
2019-02-15T01:34:17.989Z,7.90
2019-02-15T01:36:46.486Z,7.10
2019-02-15T01:39:14.865Z,6.50
2019-02-15T01:41:55.408Z,7.20
2019-02-15T01:44:23.627Z,7.00
2019-02-15T01:46:52.094Z,8.13
2019-02-15T01:49:18.658Z,7.13
2019-02-15T01:51:45.265Z,7.40
2019-02-15T01:54:11.884Z,6.67
2019-02-15T01:56:38.465Z,7.47
2019-02-15T01:59:04.755Z,6.97
2019-02-15T02:01:31.087Z,7.50
2019-02-15T02:03:57.431Z,6.80
2019-02-15T02:06:23.778Z,7.60
2019-02-15T02:08:50.173Z,6.60
2019-02-15T02:11:16.481Z,6.50
2019-02-15T02:13:49.292Z,7.07
2019-02-15T02:16:11.052Z,6.70
2019-02-15T02:18:37.406Z,6.00
2019-02-15T02:21:03.989Z,8.53
2019-02-15T02:23:30.313Z,7.93
2019-02-15T02:25:56.635Z,8.30
2019-02-15T02:28:23.232Z,7.67
2019-02-15T02:30:49.585Z,6.73
2019-02-15T02:33:16.900Z,7.37
2019-02-15T02:35:43.477Z,5.87
2019-02-15T02:38:10.378Z,7.20
2019-02-15T02:40:36.751Z,7.27
2019-02-15T02:43:03.434Z,6.10
2019-02-15T02:45:30.092Z,6.47
2019-02-15T02:47:56.443Z,7.30
2019-02-15T02:50:22.756Z,8.80
2019-02-15T02:52:49.294Z,8.10
2019-02-15T02:55:15.983Z,6.77
2019-02-15T02:57:42.319Z,9.40
2019-02-15T03:00:09.093Z,9.90
2019-02-15T03:02:37.014Z,8.20
2019-02-15T03:05:04.402Z,6.60
2019-02-15T03:07:30.937Z,7.43
2019-02-15T03:09:57.267Z,7.60
2019-02-15T03:12:23.919Z,7.80
2019-02-15T03:14:50.513Z,7.33
2019-02-15T03:17:16.840Z,7.63
2019-02-15T03:19:43.429Z,7.17
2019-02-15T03:22:09.779Z,8.23
2019-02-15T03:24:36.387Z,8.90
2019-02-15T03:27:03.000Z,8.07
2019-02-15T03:29:29.348Z,8.00
2019-02-15T03:31:55.659Z,8.33
2019-02-15T03:34:22.025Z,7.43
2019-02-15T03:36:51.026Z,7.80
2019-02-15T03:39:31.376Z,7.40
2019-02-15T03:41:58.074Z,7.90
2019-02-15T03:44:24.456Z,7.60
2019-02-15T03:46:50.838Z,7.20
2019-02-15T03:49:17.126Z,7.80
2019-02-15T03:51:44.151Z,7.20
2019-02-15T03:54:11.821Z,8.00
2019-02-15T03:56:38.923Z,7.80
2019-02-15T03:59:06.062Z,8.67
2019-02-15T04:01:33.377Z,7.40
2019-02-15T04:03:59.785Z,7.63
2019-02-15T04:06:26.124Z,7.30
2019-02-15T04:08:52.495Z,8.50
2019-02-15T04:11:18.934Z,8.40
2019-02-15T04:13:45.490Z,7.70
2019-02-15T04:16:11.798Z,7.07
2019-02-15T04:18:38.549Z,6.70
2019-02-15T04:21:04.882Z,9.30
2019-02-15T04:23:31.270Z,8.03
2019-02-15T04:25:57.880Z,7.30
2019-02-15T04:28:25.305Z,7.60
2019-02-15T04:30:51.673Z,7.60
2019-02-15T04:33:18.170Z,7.13
2019-02-15T04:35:44.516Z,8.47
2019-02-15T04:38:10.909Z,6.47
2019-02-15T04:40:37.254Z,7.93
2019-02-15T04:43:03.568Z,7.53
2019-02-15T04:45:30.190Z,7.43
2019-02-15T04:47:56.812Z,7.27
2019-02-15T04:50:23.174Z,7.47
2019-02-15T04:52:49.656Z,7.60
2019-02-15T04:55:16.152Z,8.17
2019-02-15T04:57:42.507Z,7.83
2019-02-15T05:00:09.151Z,7.60
2019-02-15T05:02:35.577Z,7.50
2019-02-15T05:05:02.034Z,6.60
2019-02-15T05:07:28.616Z,8.90
2019-02-15T05:09:55.193Z,8.07
2019-02-15T05:12:21.541Z,6.90
2019-02-15T05:14:53.134Z,6.93
2019-02-15T05:17:16.421Z,7.60
2019-02-15T05:19:43.057Z,7.50
2019-02-15T05:22:09.407Z,6.03
2019-02-15T05:24:39.995Z,5.97
2019-02-15T05:27:13.409Z,6.83
2019-02-15T05:29:39.779Z,6.40
2019-02-15T05:32:06.670Z,7.77
2019-02-15T05:34:32.999Z,6.97
2019-02-15T05:36:59.306Z,7.33
2019-02-15T05:39:25.774Z,7.03
2019-02-15T05:41:52.150Z,6.20
2019-02-15T05:44:18.491Z,6.50
2019-02-15T05:46:45.334Z,6.37
2019-02-15T05:49:11.657Z,6.50
2019-02-15T05:51:38.247Z,6.43
2019-02-15T05:54:04.563Z,6.57
2019-02-15T05:56:30.888Z,7.00
2019-02-15T05:58:57.260Z,7.83
2019-02-15T06:01:26.073Z,7.77
2019-02-15T06:03:52.694Z,6.43
2019-02-15T06:06:19.379Z,6.70
2019-02-15T06:08:45.722Z,6.80
2019-02-15T06:11:12.047Z,6.20
2019-02-15T06:13:38.422Z,6.90
2019-02-15T06:16:05.089Z,7.77
2019-02-15T06:18:31.725Z,7.53
2019-02-15T06:20:58.328Z,7.20
2019-02-15T06:23:24.720Z,7.37
2019-02-15T06:25:51.279Z,6.80
2019-02-15T06:28:17.620Z,6.80
2019-02-15T06:30:43.914Z,7.00
2019-02-15T06:33:10.246Z,7.80
2019-02-15T06:35:37.256Z,6.43
2019-02-15T06:38:03.554Z,7.90
2019-02-15T06:40:29.944Z,7.50
2019-02-15T06:42:56.520Z,6.90
2019-02-15T06:45:25.207Z,6.30
2019-02-15T06:47:51.132Z,5.20
2019-02-15T06:50:17.753Z,6.40
2019-02-15T06:52:44.099Z,6.80
2019-02-15T06:55:11.443Z,6.47
2019-02-15T06:57:37.771Z,6.97
2019-02-15T07:00:25.887Z,5.97
2019-02-15T07:02:54.350Z,6.90
2019-02-15T07:05:26.796Z,7.13
2019-02-15T07:07:53.116Z,6.67
2019-02-15T07:10:19.479Z,7.10
2019-02-15T07:12:46.101Z,6.93
2019-02-15T07:15:12.716Z,6.63
2019-02-15T07:17:42.141Z,6.57
2019-02-15T07:20:15.044Z,7.33
2019-02-15T07:22:41.545Z,8.30
2019-02-15T07:25:10.859Z,6.53
2019-02-15T07:27:37.875Z,7.53
2019-02-15T07:30:11.656Z,7.30
2019-02-15T07:32:38.154Z,6.90
2019-02-15T07:35:06.244Z,7.00
2019-02-15T07:37:33.277Z,6.60
2019-02-15T07:39:59.933Z,6.20
2019-02-15T07:42:26.356Z,6.20
2019-02-15T07:44:52.667Z,6.80
2019-02-15T07:47:19.307Z,5.10
2019-02-15T07:49:45.628Z,5.50
2019-02-15T07:52:12.232Z,6.03
2019-02-15T07:54:38.548Z,6.50
2019-02-15T07:57:05.302Z,7.30
2019-02-15T07:59:31.604Z,5.67
2019-02-15T08:02:01.891Z,5.90
2019-02-15T08:04:26.401Z,6.60
2019-02-15T08:06:52.740Z,5.60
2019-02-15T08:09:19.058Z,6.60
2019-02-15T08:11:45.592Z,6.40
2019-02-15T08:14:14.983Z,6.03
2019-02-15T08:16:41.647Z,5.17
2019-02-15T08:19:08.003Z,5.67
2019-02-15T08:21:35.408Z,5.77
2019-02-15T08:24:02.043Z,4.60
2019-02-15T08:26:28.611Z,4.30
2019-02-15T08:28:55.225Z,3.67
2019-02-15T08:31:21.785Z,4.77
2019-02-15T08:33:48.453Z,4.73
2019-02-15T08:36:15.033Z,4.23
2019-02-15T08:38:41.645Z,5.67
2019-02-15T08:41:07.973Z,4.33
2019-02-15T08:43:34.727Z,4.10
2019-02-15T08:46:03.307Z,4.43
2019-02-15T08:48:29.352Z,5.23
2019-02-15T08:50:55.927Z,4.90
2019-02-15T08:53:22.512Z,4.33
2019-02-15T08:55:48.817Z,4.80
2019-02-15T08:58:15.242Z,5.00
2019-02-15T09:00:41.903Z,4.40
2019-02-15T09:03:08.369Z,4.13
2019-02-15T09:05:34.782Z,4.93
2019-02-15T09:08:01.499Z,4.83
2019-02-15T09:10:27.798Z,4.40
2019-02-15T09:12:54.136Z,4.60
2019-02-15T09:15:22.797Z,5.20
2019-02-15T09:17:49.122Z,4.90
2019-02-15T09:20:15.719Z,4.47
2019-02-15T09:22:42.028Z,5.23
2019-02-15T09:25:09.823Z,5.57
2019-02-15T09:27:38.367Z,5.23
2019-02-15T09:30:10.315Z,4.13
2019-02-15T09:32:36.630Z,5.20
2019-02-15T09:35:06.342Z,5.10
2019-02-15T09:37:32.681Z,4.60
2019-02-15T09:39:59.089Z,4.87
2019-02-15T09:42:25.700Z,6.73
2019-02-15T09:44:53.333Z,6.47
2019-02-15T09:47:19.660Z,5.17
2019-02-15T09:49:46.787Z,5.07
2019-02-15T09:52:13.478Z,4.97
2019-02-15T09:54:39.824Z,5.37
2019-02-15T09:57:06.163Z,6.00
2019-02-15T09:59:33.188Z,4.60
2019-02-15T10:01:59.520Z,5.77
2019-02-15T10:04:26.188Z,6.23
2019-02-15T10:06:52.887Z,6.00
2019-02-15T10:09:19.295Z,6.57
2019-02-15T10:11:45.598Z,6.20
2019-02-15T10:14:12.242Z,5.90
2019-02-15T10:16:41.403Z,5.90
2019-02-15T10:19:07.788Z,5.40
2019-02-15T10:21:34.349Z,5.90
2019-02-15T10:24:00.671Z,6.70
2019-02-15T10:26:27.352Z,6.43
2019-02-15T10:28:53.770Z,6.77
2019-02-15T10:31:20.207Z,7.00
2019-02-15T10:33:46.500Z,6.93
2019-02-15T10:36:12.911Z,5.23
2019-02-15T10:38:39.560Z,6.20
2019-02-15T10:41:06.222Z,6.27
2019-02-15T10:43:32.850Z,5.23
2019-02-15T10:45:59.225Z,5.83
2019-02-15T10:48:25.687Z,6.10
2019-02-15T10:50:52.079Z,6.80
2019-02-15T10:53:20.593Z,5.97
2019-02-15T10:55:47.219Z,5.23
2019-02-15T10:58:13.549Z,6.60
2019-02-15T11:00:40.408Z,6.53
2019-02-15T11:03:07.140Z,6.17
2019-02-15T11:05:33.481Z,6.40
2019-02-15T11:07:59.790Z,6.33
2019-02-15T11:10:27.410Z,6.43
2019-02-15T11:12:53.728Z,6.60
2019-02-15T11:15:20.086Z,6.27
2019-02-15T11:17:46.394Z,6.60
2019-02-15T11:20:15.399Z,6.93
2019-02-15T11:22:41.798Z,6.00
2019-02-15T11:25:10.072Z,6.53
2019-02-15T11:27:36.504Z,6.40
2019-02-15T11:30:10.499Z,6.70
2019-02-15T11:32:36.820Z,7.70
2019-02-15T11:35:08.589Z,7.30
2019-02-15T11:37:35.172Z,6.70
2019-02-15T11:40:02.252Z,7.10
2019-02-15T11:42:28.845Z,7.03
2019-02-15T11:44:55.537Z,8.30
2019-02-15T11:47:22.198Z,7.40
2019-02-15T11:49:48.837Z,7.90
2019-02-15T11:52:15.243Z,7.90
2019-02-15T11:54:41.599Z,8.10
2019-02-15T11:57:08.359Z,8.07
2019-02-15T11:59:34.934Z,7.43
2019-02-15T12:02:06.037Z,8.87
2019-02-15T12:04:29.770Z,7.80
2019-02-15T12:06:56.173Z,7.57
2019-02-15T12:09:22.560Z,6.80
2019-02-15T12:11:48.858Z,7.77
2019-02-15T12:14:15.485Z,6.93
2019-02-15T12:16:42.158Z,6.33
2019-02-15T12:19:08.499Z,5.40
2019-02-15T12:21:34.836Z,5.30
2019-02-15T12:24:01.149Z,6.10
2019-02-15T12:26:27.477Z,5.87
2019-02-15T12:28:53.792Z,4.83
2019-02-15T12:31:20.171Z,4.63
2019-02-15T12:33:46.765Z,5.90
2019-02-15T12:36:13.082Z,4.53
2019-02-15T12:38:39.645Z,5.13
2019-02-15T12:41:06.004Z,5.40
2019-02-15T12:43:32.868Z,4.67
2019-02-15T12:45:59.385Z,5.40
2019-02-15T12:48:26.418Z,4.20
2019-02-15T12:50:52.772Z,4.10
2019-02-15T12:53:19.516Z,4.40
2019-02-15T12:55:45.819Z,6.17
2019-02-15T12:58:12.431Z,4.67
2019-02-15T13:00:38.796Z,4.77
2019-02-15T13:03:06.126Z,4.33
2019-02-15T13:05:32.454Z,4.33
2019-02-15T13:07:59.037Z,4.30
2019-02-15T13:10:27.278Z,4.00
2019-02-15T13:12:53.703Z,5.93
2019-02-15T13:15:20.317Z,5.03
2019-02-15T13:17:46.911Z,5.00
2019-02-15T13:20:13.544Z,2.80
2019-02-15T13:22:40.254Z,4.53
2019-02-15T13:25:07.340Z,2.70
2019-02-15T13:27:33.676Z,2.80
2019-02-15T13:30:00.379Z,3.70
2019-02-15T13:32:26.928Z,2.70
2019-02-15T13:34:53.671Z,1.90
2019-02-15T13:37:20.246Z,2.10
2019-02-15T13:39:46.624Z,1.70
2019-02-15T13:42:12.981Z,3.23
2019-02-15T13:44:39.883Z,1.87
2019-02-15T13:47:06.215Z,1.50
2019-02-15T13:49:32.670Z,2.20
2019-02-15T13:51:59.769Z,1.10
2019-02-15T13:54:26.459Z,1.00
2019-02-15T13:56:52.815Z,1.00
2019-02-15T13:59:19.145Z,0.90
2019-02-15T14:01:46.459Z,1.00
2019-02-15T14:04:12.805Z,1.30
2019-02-15T14:06:39.370Z,2.30
2019-02-15T14:09:05.733Z,1.40
2019-02-15T14:11:33.940Z,0.77
2019-02-15T14:14:00.324Z,0.83
2019-02-15T14:16:26.689Z,1.03
2019-02-15T14:18:53.625Z,1.00
2019-02-15T14:21:20.214Z,0.80
2019-02-15T14:23:46.575Z,1.50
2019-02-15T14:26:12.916Z,0.90
2019-02-15T14:28:39.250Z,3.17
2019-02-15T14:31:07.208Z,1.20
2019-02-15T14:33:33.525Z,1.00
2019-02-15T14:35:59.960Z,0.90
2019-02-15T14:38:26.551Z,0.90
2019-02-15T14:40:53.138Z,0.70
2019-02-15T14:43:19.546Z,0.90
2019-02-15T14:45:45.860Z,1.23
2019-02-15T14:48:12.453Z,3.90
2019-02-15T14:50:38.767Z,2.03
2019-02-15T14:53:05.128Z,1.47
2019-02-15T14:55:31.488Z,1.50
2019-02-15T14:57:58.248Z,4.90
2019-02-15T15:00:24.585Z,2.10
2019-02-15T15:02:50.915Z,1.80
2019-02-15T15:05:17.327Z,1.30
2019-02-15T15:07:43.993Z,1.10
2019-02-15T15:10:10.955Z,2.00
2019-02-15T15:12:37.883Z,1.93
2019-02-15T15:15:11.730Z,1.27
2019-02-15T15:17:38.639Z,2.20
2019-02-15T15:20:08.818Z,2.00
2019-02-15T15:22:35.152Z,1.00
2019-02-15T15:25:01.546Z,1.20
2019-02-15T15:27:28.105Z,2.20
2019-02-15T15:29:54.722Z,1.40
2019-02-15T15:32:21.283Z,1.60
2019-02-15T15:34:47.632Z,1.80
2019-02-15T15:37:16.441Z,1.73
2019-02-15T15:39:42.232Z,1.90
2019-02-15T15:42:08.543Z,2.00
2019-02-15T15:44:35.131Z,1.50
2019-02-15T15:47:01.489Z,1.27
2019-02-15T15:49:27.949Z,1.90
2019-02-15T15:51:54.331Z,1.50
2019-02-15T15:54:21.010Z,1.70
2019-02-15T15:56:47.356Z,2.20
2019-02-15T15:59:13.824Z,2.07
2019-02-15T16:01:40.231Z,2.30
2019-02-15T16:04:06.633Z,3.13
2019-02-15T16:06:32.971Z,2.20
2019-02-15T16:08:59.618Z,2.17
2019-02-15T16:11:26.810Z,1.30
2019-02-15T16:13:53.438Z,1.50
2019-02-15T16:16:19.766Z,1.60
2019-02-15T16:18:46.344Z,2.97
2019-02-15T16:21:12.691Z,3.60
2019-02-15T16:23:38.999Z,3.40
2019-02-15T16:26:05.402Z,3.93
2019-02-15T16:28:31.945Z,2.93
2019-02-15T16:30:58.285Z,2.60
2019-02-15T16:33:25.982Z,2.10
2019-02-15T16:35:52.328Z,1.60
2019-02-15T16:38:18.642Z,2.03
2019-02-15T16:40:45.252Z,2.00
2019-02-15T16:43:11.803Z,1.63
2019-02-15T16:45:38.161Z,2.30
2019-02-15T16:48:04.779Z,1.77
2019-02-15T16:50:31.370Z,2.50
2019-02-15T16:52:57.699Z,2.90
2019-02-15T16:55:24.342Z,3.00
2019-02-15T16:57:50.974Z,2.87
2019-02-15T17:00:17.526Z,2.80
2019-02-15T17:02:43.840Z,2.90
2019-02-15T17:05:11.801Z,2.60
2019-02-15T17:07:38.132Z,5.80
2019-02-15T17:10:08.797Z,4.00
2019-02-15T17:12:35.343Z,2.77
2019-02-15T17:15:02.014Z,2.03
2019-02-15T17:17:29.828Z,3.00
2019-02-15T17:19:56.532Z,3.40
2019-02-15T17:22:22.863Z,4.80
2019-02-15T17:24:49.197Z,3.80
2019-02-15T17:27:15.510Z,5.60
2019-02-15T17:29:42.141Z,4.77
2019-02-15T17:32:08.435Z,5.50
2019-02-15T17:34:35.056Z,5.13
2019-02-15T17:37:01.819Z,3.97
2019-02-15T17:39:28.319Z,4.33
2019-02-15T17:41:55.741Z,2.97
2019-02-15T17:44:22.312Z,3.70
2019-02-15T17:46:48.667Z,3.03
2019-02-15T17:49:15.226Z,3.77
2019-02-15T17:51:41.587Z,5.33
2019-02-15T17:54:08.145Z,5.80
2019-02-15T17:56:34.513Z,5.70
2019-02-15T17:59:00.824Z,11.00
2019-02-15T18:01:27.181Z,22.30
2019-02-15T18:03:53.492Z,20.03
2019-02-15T18:06:19.852Z,16.90
2019-02-15T18:08:46.162Z,13.57
2019-02-15T18:11:12.520Z,10.90
2019-02-15T18:13:40.233Z,7.83
2019-02-15T18:16:06.813Z,7.47
2019-02-15T18:18:33.169Z,9.20
2019-02-15T18:20:59.783Z,21.27
2019-02-15T18:23:26.458Z,13.83
2019-02-15T18:25:53.060Z,16.33
2019-02-15T18:28:19.386Z,9.77
2019-02-15T18:30:45.956Z,9.80
2019-02-15T18:33:12.292Z,9.57
2019-02-15T18:35:38.881Z,8.50
2019-02-15T18:38:05.215Z,8.13
2019-02-15T18:40:31.847Z,10.53
2019-02-15T18:42:58.281Z,9.87
2019-02-15T18:45:32.257Z,11.07
2019-02-15T18:47:58.607Z,9.67
2019-02-15T18:50:25.231Z,13.23
2019-02-15T18:52:51.518Z,10.03
2019-02-15T18:55:18.114Z,9.30
2019-02-15T18:57:45.521Z,11.43
2019-02-15T19:00:16.394Z,11.90
2019-02-15T19:02:46.254Z,9.50
2019-02-15T19:05:12.759Z,7.60
2019-02-15T19:07:39.636Z,10.77
2019-02-15T19:10:12.935Z,9.70
2019-02-15T19:12:39.577Z,10.20
2019-02-15T19:15:10.871Z,10.57
2019-02-15T19:17:37.224Z,11.73
2019-02-15T19:20:08.455Z,8.97
2019-02-15T19:22:34.863Z,9.30
2019-02-15T19:25:01.200Z,8.03
2019-02-15T19:27:29.091Z,8.70
2019-02-15T19:29:55.436Z,9.20
2019-02-15T19:32:22.231Z,8.60
2019-02-15T19:34:48.803Z,9.33
2019-02-15T19:37:15.447Z,9.03
2019-02-15T19:39:41.769Z,8.77
2019-02-15T19:42:10.506Z,10.67
2019-02-15T19:44:38.072Z,10.07
2019-02-15T19:47:04.755Z,10.47
2019-02-15T19:49:38.639Z,10.70
2019-02-15T19:51:59.611Z,10.00
2019-02-15T19:54:25.955Z,9.20
2019-02-15T19:56:52.341Z,7.53
2019-02-15T19:59:18.978Z,7.90
2019-02-15T20:01:45.558Z,8.27
2019-02-15T20:04:12.183Z,8.07
2019-02-15T20:06:38.746Z,8.23
2019-02-15T20:09:05.335Z,8.97
2019-02-15T20:11:33.570Z,7.47
2019-02-15T20:14:00.199Z,6.80
2019-02-15T20:16:26.761Z,8.90
2019-02-15T20:18:53.107Z,6.83
2019-02-15T20:21:19.680Z,16.90
2019-02-15T20:23:46.335Z,8.30
2019-02-15T20:26:13.650Z,7.67
2019-02-15T20:28:40.042Z,11.50
2019-02-15T20:31:06.390Z,10.50
2019-02-15T20:33:32.993Z,8.97
2019-02-15T20:35:59.523Z,10.00
2019-02-15T20:38:26.201Z,10.67
2019-02-15T20:40:52.546Z,9.63
2019-02-15T20:43:19.872Z,10.40
2019-02-15T20:45:46.197Z,9.00
2019-02-15T20:48:13.255Z,10.23
2019-02-15T20:50:40.586Z,9.60
2019-02-15T20:53:07.213Z,9.73
2019-02-15T20:55:33.556Z,9.30
2019-02-15T20:57:59.944Z,8.37
2019-02-15T21:00:29.882Z,9.53
2019-02-15T21:02:56.455Z,9.47
2019-02-15T21:05:23.018Z,8.70
2019-02-15T21:07:49.366Z,8.43
2019-02-15T21:10:16.122Z,8.80
2019-02-15T21:12:42.801Z,8.23
2019-02-15T21:15:11.580Z,10.57
2019-02-15T21:17:38.387Z,8.40
2019-02-15T21:20:12.873Z,9.37
2019-02-15T21:22:39.652Z,10.30
2019-02-15T21:25:09.909Z,10.00
2019-02-15T21:27:36.956Z,8.93
2019-02-15T21:30:08.620Z,10.17
2019-02-15T21:32:35.290Z,12.50
2019-02-15T21:35:01.646Z,9.80
2019-02-15T21:37:28.275Z,9.43
2019-02-15T21:39:54.591Z,9.70
2019-02-15T21:42:20.946Z,8.27
2019-02-15T21:44:47.274Z,10.57
2019-02-15T21:47:13.605Z,13.10
2019-02-15T21:49:40.233Z,21.13
2019-02-15T21:52:06.801Z,7.87
2019-02-15T21:54:33.110Z,7.67
2019-02-15T21:56:59.507Z,8.30
2019-02-15T21:59:25.859Z,9.07
2019-02-15T22:01:52.302Z,9.70
2019-02-15T22:04:18.922Z,9.50
2019-02-15T22:06:45.262Z,8.20
2019-02-15T22:09:12.327Z,8.90
2019-02-15T22:11:38.867Z,7.10
2019-02-15T22:14:05.174Z,7.77
2019-02-15T22:16:32.816Z,6.53
2019-02-15T22:18:59.415Z,7.90
2019-02-15T22:21:26.096Z,8.10
2019-02-15T22:23:52.435Z,8.13
2019-02-15T22:26:18.762Z,7.90
2019-02-15T22:28:45.427Z,7.27
2019-02-15T22:31:12.104Z,11.87
2019-02-15T22:33:38.491Z,10.73
2019-02-15T22:36:04.955Z,9.83
2019-02-15T22:38:31.612Z,9.10
2019-02-15T22:41:10.147Z,8.33
2019-02-15T22:43:36.541Z,8.30
2019-02-15T22:46:03.564Z,10.27
2019-02-15T22:48:30.142Z,9.10
2019-02-15T22:50:56.725Z,8.37
2019-02-15T22:53:23.048Z,9.33
2019-02-15T22:55:49.662Z,8.50
2019-02-15T22:58:16.118Z,7.93
2019-02-15T23:00:49.451Z,8.27
2019-02-15T23:03:22.480Z,8.27
2019-02-15T23:05:50.074Z,8.70
2019-02-15T23:08:16.407Z,7.70
2019-02-15T23:10:42.735Z,9.17
2019-02-15T23:13:09.047Z,8.47
2019-02-15T23:15:35.640Z,9.40
2019-02-15T23:18:02.201Z,8.17
2019-02-15T23:20:28.659Z,9.10
2019-02-15T23:22:55.202Z,9.37
2019-02-15T23:25:21.524Z,9.90
2019-02-15T23:27:47.921Z,7.90
2019-02-15T23:30:14.478Z,8.10
2019-02-15T23:32:42.063Z,7.83
2019-02-15T23:35:08.395Z,8.20
2019-02-15T23:37:34.721Z,8.50
2019-02-15T23:40:01.287Z,7.40
2019-02-15T23:42:27.899Z,7.87
2019-02-15T23:44:54.203Z,6.93
2019-02-15T23:47:20.538Z,7.37
2019-02-15T23:49:47.047Z,6.80
2019-02-15T23:52:13.400Z,8.40
2019-02-15T23:54:39.982Z,7.90
2019-02-15T23:57:06.596Z,7.90
2019-02-15T23:59:33.195Z,7.17
